Time;durP1;ratioP1;P1;durP2;ratioP2;P2;SDS_P1;SDS_P2;PMS_P1;PMS_P2;Temp;Humidity;BMP_temperature;BMP_pressure;BME280_temperature;BME280_humidity;BME280_pressure;Samples;Min_cycle;Max_cycle;Signal;HPM_P1;HPM_P2
2022/11/29 00:01:54;;;;;;;199.70;51.00;;;;;;;;;;5019230;28;93325;-64
2022/11/29 00:04:20;;;;;;;214.48;51.97;;;;;;;;;;5015802;27;93726;-65
2022/11/29 00:06:47;;;;;;;177.30;50.72;;;;;;;;;;5018710;28;91691;-65
2022/11/29 00:09:13;;;;;;;191.95;51.65;;;;;;;;;;5015706;28;94423;-65
2022/11/29 00:14:25;;;;;;;171.73;49.72;;;;;;;;;;5014307;28;94824;-65
2022/11/29 00:16:57;;;;;;;189.27;50.95;;;;;;;;;;5015576;28;93728;-65
2022/11/29 00:19:24;;;;;;;158.23;47.05;;;;;;;;;;5017028;28;92419;-65
2022/11/29 00:21:50;;;;;;;206.35;50.65;;;;;;;;;;5014311;28;93261;-65
2022/11/29 00:24:16;;;;;;;180.05;50.22;;;;;;;;;;5014693;28;93411;-66
2022/11/29 00:26:43;;;;;;;173.30;48.03;;;;;;;;;;5014053;28;93182;-66
2022/11/29 00:29:10;;;;;;;151.75;47.28;;;;;;;;;;5017488;28;93210;-66
2022/11/29 00:31:36;;;;;;;168.77;48.03;;;;;;;;;;5014332;28;91760;-66
2022/11/29 00:34:05;;;;;;;164.05;48.40;;;;;;;;;;5013918;28;92531;-66
2022/11/29 00:36:33;;;;;;;206.18;50.65;;;;;;;;;;5013363;28;94526;-65
2022/11/29 00:38:59;;;;;;;219.75;51.22;;;;;;;;;;5012890;28;95083;-66
2022/11/29 00:41:25;;;;;;;176.07;48.17;;;;;;;;;;5014920;28;96692;-65
2022/11/29 00:43:52;;;;;;;178.10;45.72;;;;;;;;;;5012373;28;93368;-65
2022/11/29 00:46:18;;;;;;;165.13;49.60;;;;;;;;;;5014659;28;92541;-65
2022/11/29 00:48:45;;;;;;;171.63;50.13;;;;;;;;;;5016365;28;93313;-65
2022/11/29 00:51:11;;;;;;;189.82;48.08;;;;;;;;;;5014511;28;92462;-65
2022/11/29 00:53:37;;;;;;;158.85;47.13;;;;;;;;;;5013459;28;93313;-66
2022/11/29 00:56:04;;;;;;;159.77;48.40;;;;;;;;;;5012436;28;92690;-66
2022/11/29 00:58:31;;;;;;;179.73;47.17;;;;;;;;;;5013131;28;92597;-65
2022/11/29 01:00:57;;;;;;;152.00;47.50;;;;;;;;;;5013358;28;93255;-65
2022/11/29 01:03:24;;;;;;;136.10;43.92;;;;;;;;;;5021292;28;95879;-66
2022/11/29 01:05:51;;;;;;;128.32;43.50;;;;;;;;;;5015785;28;93146;-66
2022/11/29 01:08:17;;;;;;;124.93;42.03;;;;;;;;;;5013502;28;93342;-65
2022/11/29 01:10:43;;;;;;;124.05;43.45;;;;;;;;;;5018202;27;93227;-65
2022/11/29 01:13:10;;;;;;;132.60;43.38;;;;;;;;;;5012094;28;93317;-65
2022/11/29 01:15:36;;;;;;;130.10;43.28;;;;;;;;;;5014774;28;94418;-66
2022/11/29 01:18:03;;;;;;;124.43;42.78;;;;;;;;;;5011216;28;92698;-65
2022/11/29 01:20:29;;;;;;;129.45;40.55;;;;;;;;;;5013069;28;93365;-66
2022/11/29 01:22:55;;;;;;;133.02;43.10;;;;;;;;;;5013981;28;94448;-65
2022/11/29 01:25:21;;;;;;;149.13;41.83;;;;;;;;;;5013009;28;92542;-65
2022/11/29 01:27:48;;;;;;;153.80;44.97;;;;;;;;;;5016710;27;95286;-66
2022/11/29 01:30:14;;;;;;;151.02;42.75;;;;;;;;;;5009423;28;94445;-66
2022/11/29 01:32:40;;;;;;;117.53;41.35;;;;;;;;;;5016469;27;93748;-66
2022/11/29 01:35:07;;;;;;;110.22;40.33;;;;;;;;;;5022177;27;93416;-66
2022/11/29 01:37:34;;;;;;;99.03;37.70;;;;;;;;;;5032203;27;92474;-67
2022/11/29 01:40:00;;;;;;;107.00;37.28;;;;;;;;;;5015595;28;93437;-66
2022/11/29 01:42:26;;;;;;;102.68;37.92;;;;;;;;;;5010788;28;93966;-67
2022/11/29 01:45:11;;;;;;;99.70;38.10;;;;;;;;;;5012401;28;91713;-68
2022/11/29 01:47:40;;;;;;;96.03;37.22;;;;;;;;;;4995235;28;92366;-65
2022/11/29 01:50:06;;;;;;;102.85;37.10;;;;;;;;;;5011956;28;94167;-65
2022/11/29 01:52:33;;;;;;;109.70;39.83;;;;;;;;;;5014752;28;94971;-65
2022/11/29 01:55:00;;;;;;;111.22;38.97;;;;;;;;;;5019227;28;95962;-66
2022/11/29 01:57:27;;;;;;;119.68;39.95;;;;;;;;;;5016966;28;92478;-67
2022/11/29 01:59:56;;;;;;;107.00;38.03;;;;;;;;;;5010126;28;93245;-66
2022/11/29 02:02:29;;;;;;;105.63;39.20;;;;;;;;;;5011429;28;92583;-66
2022/11/29 02:04:56;;;;;;;121.85;39.35;;;;;;;;;;5014062;28;93235;-66
2022/11/29 02:07:22;;;;;;;119.53;41.75;;;;;;;;;;5012410;28;93172;-66
2022/11/29 02:09:48;;;;;;;105.97;39.22;;;;;;;;;;5012856;28;92471;-66
2022/11/29 02:12:21;;;;;;;103.93;38.20;;;;;;;;;;5012799;28;92537;-66
2022/11/29 02:14:50;;;;;;;105.75;39.20;;;;;;;;;;5012049;28;92437;-66
2022/11/29 02:17:25;;;;;;;116.68;39.38;;;;;;;;;;5031955;27;96172;-66
2022/11/29 02:20:21;;;;;;;102.65;37.35;;;;;;;;;;5014688;28;96063;-66
2022/11/29 02:22:50;;;;;;;109.15;39.70;;;;;;;;;;5006465;28;93392;-66
2022/11/29 02:25:23;;;;;;;116.32;40.03;;;;;;;;;;5022761;27;92732;-66
2022/11/29 02:27:59;;;;;;;116.95;39.40;;;;;;;;;;5025526;27;93714;-66
2022/11/29 02:30:31;;;;;;;84.95;35.30;;;;;;;;;;5016533;28;93638;-66
2022/11/29 02:33:06;;;;;;;104.38;36.13;;;;;;;;;;5010377;28;92850;-66
2022/11/29 02:35:50;;;;;;;105.55;36.05;;;;;;;;;;5015242;28;93296;-67
2022/11/29 02:38:25;;;;;;;103.32;36.75;;;;;;;;;;5013527;27;93458;-65
2022/11/29 02:41:11;;;;;;;95.28;35.92;;;;;;;;;;5013987;28;92462;-65
2022/11/29 02:43:52;;;;;;;138.93;39.55;;;;;;;;;;5008632;28;96218;-66
2022/11/29 02:46:24;;;;;;;89.22;35.70;;;;;;;;;;5027161;27;92476;-65
2022/11/29 02:49:09;;;;;;;108.03;36.97;;;;;;;;;;5013305;28;93631;-65
2022/11/29 02:51:56;;;;;;;93.35;36.42;;;;;;;;;;5017457;28;94426;-65
2022/11/29 02:54:26;;;;;;;122.80;40.08;;;;;;;;;;5021298;27;92564;-65
2022/11/29 02:56:56;;;;;;;99.97;36.55;;;;;;;;;;5013281;28;93465;-65
2022/11/29 02:59:40;;;;;;;133.52;40.08;;;;;;;;;;5012173;28;93876;-65
2022/11/29 03:02:18;;;;;;;110.05;38.63;;;;;;;;;;5015285;28;92159;-66
2022/11/29 03:05:08;;;;;;;107.18;36.63;;;;;;;;;;5022190;28;94970;-66
2022/11/29 03:07:39;;;;;;;96.85;35.80;;;;;;;;;;5012530;28;94147;-65
2022/11/29 03:10:14;;;;;;;104.60;36.35;;;;;;;;;;5018649;28;96380;-65
2022/11/29 03:12:45;;;;;;;108.93;36.83;;;;;;;;;;5013874;27;93322;-65
2022/11/29 03:15:27;;;;;;;144.60;38.30;;;;;;;;;;5021591;28;92494;-66
2022/11/29 03:18:02;;;;;;;157.32;39.60;;;;;;;;;;5011698;28;93943;-65
2022/11/29 03:20:46;;;;;;;112.22;37.63;;;;;;;;;;5028016;27;95613;-66
2022/11/29 03:23:31;;;;;;;110.53;36.72;;;;;;;;;;5014551;28;92855;-66
2022/11/29 03:26:06;;;;;;;110.93;36.65;;;;;;;;;;5023386;27;93226;-66
2022/11/29 03:28:32;;;;;;;107.18;34.65;;;;;;;;;;5012550;27;91779;-66
2022/11/29 03:31:01;;;;;;;166.15;38.03;;;;;;;;;;5028177;27;95619;-66
2022/11/29 03:33:31;;;;;;;127.95;37.35;;;;;;;;;;5010412;28;93549;-65
2022/11/29 03:35:57;;;;;;;102.32;36.05;;;;;;;;;;5013333;27;94992;-66
2022/11/29 03:38:34;;;;;;;113.60;36.92;;;;;;;;;;5019335;27;95911;-66
2022/11/29 03:41:08;;;;;;;129.93;37.55;;;;;;;;;;5011193;28;96758;-66
2022/11/29 03:43:53;;;;;;;188.30;39.92;;;;;;;;;;5018376;28;92570;-67
2022/11/29 03:46:25;;;;;;;119.88;36.63;;;;;;;;;;5013703;27;93910;-66
2022/11/29 03:48:58;;;;;;;137.95;37.15;;;;;;;;;;5014274;28;93901;-66
2022/11/29 03:51:43;;;;;;;114.65;35.78;;;;;;;;;;5019588;28;93304;-66
2022/11/29 03:54:10;;;;;;;110.80;35.88;;;;;;;;;;5018443;28;93004;-66
2022/11/29 03:56:39;;;;;;;120.03;36.63;;;;;;;;;;5016961;28;92482;-66
2022/11/29 03:59:08;;;;;;;111.82;36.88;;;;;;;;;;5021332;28;94084;-66
2022/11/29 04:01:53;;;;;;;121.93;37.17;;;;;;;;;;5025863;27;95806;-66
2022/11/29 04:04:38;;;;;;;122.05;36.35;;;;;;;;;;5015182;28;92632;-65
2022/11/29 04:07:04;;;;;;;105.43;31.55;;;;;;;;;;5013236;28;92514;-65
2022/11/29 04:09:41;;;;;;;117.80;32.83;;;;;;;;;;5013703;28;93650;-65
2022/11/29 04:12:17;;;;;;;102.13;31.17;;;;;;;;;;5017719;28;92742;-65
2022/11/29 04:14:43;;;;;;;97.57;32.33;;;;;;;;;;5014725;28;93596;-65
2022/11/29 04:17:09;;;;;;;119.75;35.42;;;;;;;;;;5015780;28;92563;-65
2022/11/29 04:19:54;;;;;;;118.88;32.40;;;;;;;;;;5015259;28;93839;-65
2022/11/29 04:22:30;;;;;;;150.25;33.33;;;;;;;;;;5014479;28;93994;-64
2022/11/29 04:24:56;;;;;;;335.17;38.95;;;;;;;;;;5014321;28;92530;-66
2022/11/29 04:27:29;;;;;;;178.25;34.00;;;;;;;;;;5013407;28;94823;-65
2022/11/29 04:30:10;;;;;;;146.40;33.70;;;;;;;;;;5015296;28;94038;-66
2022/11/29 04:32:55;;;;;;;169.00;34.45;;;;;;;;;;5013348;28;92603;-65
2022/11/29 04:35:31;;;;;;;220.48;35.17;;;;;;;;;;5017640;28;93579;-66
2022/11/29 04:38:16;;;;;;;263.27;36.60;;;;;;;;;;5020436;28;92870;-66
2022/11/29 04:40:42;;;;;;;320.92;37.83;;;;;;;;;;5015170;28;93716;-66
2022/11/29 04:43:16;;;;;;;170.15;34.75;;;;;;;;;;5018817;27;93322;-65
2022/11/29 04:45:42;;;;;;;305.10;37.50;;;;;;;;;;5026217;28;92063;-65
2022/11/29 04:48:16;;;;;;;206.40;30.83;;;;;;;;;;5017408;28;92458;-66
2022/11/29 04:50:52;;;;;;;110.28;30.63;;;;;;;;;;5016287;28;93383;-65
2022/11/29 04:53:30;;;;;;;139.55;32.15;;;;;;;;;;5023416;28;94901;-65
2022/11/29 04:56:14;;;;;;;248.07;33.53;;;;;;;;;;5024481;27;95645;-65
2022/11/29 04:58:40;;;;;;;126.75;32.03;;;;;;;;;;5014054;28;92699;-65
2022/11/29 05:01:17;;;;;;;174.02;33.90;;;;;;;;;;5017787;28;93336;-65
2022/11/29 05:04:02;;;;;;;79.45;28.05;;;;;;;;;;5026151;28;94869;-66
2022/11/29 05:06:34;;;;;;;89.20;27.83;;;;;;;;;;5016856;28;92636;-66
2022/11/29 05:09:00;;;;;;;90.30;25.95;;;;;;;;;;5013607;28;94640;-66
2022/11/29 05:11:39;;;;;;;100.15;27.23;;;;;;;;;;5013825;27;93096;-65
2022/11/29 05:14:15;;;;;;;279.20;30.08;;;;;;;;;;5014117;28;93046;-65
2022/11/29 05:16:44;;;;;;;107.88;27.20;;;;;;;;;;5020200;28;93579;-66
2022/11/29 05:19:30;;;;;;;140.38;28.60;;;;;;;;;;5024951;28;95528;-65
2022/11/29 05:22:06;;;;;;;93.90;27.05;;;;;;;;;;5001417;28;97236;-66
2022/11/29 05:24:38;;;;;;;152.15;28.40;;;;;;;;;;5007311;28;93572;-66
2022/11/29 05:27:17;;;;;;;126.03;27.27;;;;;;;;;;5026290;28;92417;-66
2022/11/29 05:29:52;;;;;;;166.57;26.40;;;;;;;;;;5013607;28;93246;-66
2022/11/29 05:32:37;;;;;;;135.82;27.13;;;;;;;;;;5010408;28;94521;-65
2022/11/29 05:35:25;;;;;;;192.95;28.33;;;;;;;;;;5013616;27;93208;-66
2022/11/29 05:37:53;;;;;;;308.70;30.73;;;;;;;;;;5015521;28;93149;-67
2022/11/29 05:40:19;;;;;;;313.33;32.67;;;;;;;;;;5029860;28;94164;-66
2022/11/29 05:42:45;;;;;;;423.80;36.90;;;;;;;;;;5023109;27;93539;-66
2022/11/29 05:45:24;;;;;;;186.38;29.50;;;;;;;;;;5010267;28;96837;-66
2022/11/29 05:47:53;;;;;;;186.93;28.92;;;;;;;;;;5027640;28;93766;-66
2022/11/29 05:50:22;;;;;;;296.98;32.53;;;;;;;;;;5017090;27;93251;-66
2022/11/29 05:52:52;;;;;;;258.98;33.28;;;;;;;;;;5013666;28;94770;-66
2022/11/29 05:55:36;;;;;;;203.63;32.88;;;;;;;;;;5014039;28;92657;-66
2022/11/29 05:58:10;;;;;;;479.05;39.63;;;;;;;;;;5012307;28;94447;-66
2022/11/29 06:00:52;;;;;;;283.85;31.88;;;;;;;;;;5019824;28;93474;-66
2022/11/29 06:03:31;;;;;;;210.10;32.05;;;;;;;;;;5004825;28;91766;-67
2022/11/29 06:06:00;;;;;;;212.93;30.48;;;;;;;;;;5013949;28;93032;-64
2022/11/29 06:08:40;;;;;;;241.98;32.88;;;;;;;;;;5013616;28;92537;-65
2022/11/29 06:11:09;;;;;;;191.00;32.60;;;;;;;;;;5012155;28;94760;-65
2022/11/29 06:13:49;;;;;;;360.90;36.17;;;;;;;;;;5012005;28;93227;-65
2022/11/29 06:16:34;;;;;;;209.70;32.97;;;;;;;;;;5011106;28;94241;-65
2022/11/29 06:19:22;;;;;;;209.75;30.98;;;;;;;;;;5011443;28;92406;-66
2022/11/29 06:21:58;;;;;;;238.05;31.45;;;;;;;;;;5011310;28;94068;-65
2022/11/29 06:24:44;;;;;;;420.13;38.45;;;;;;;;;;5012909;28;92533;-66
2022/11/29 06:27:34;;;;;;;179.02;28.33;;;;;;;;;;5011275;28;93582;-65
2022/11/29 06:30:07;;;;;;;247.13;32.40;;;;;;;;;;5016220;28;93016;-65
2022/11/29 06:32:53;;;;;;;261.13;32.47;;;;;;;;;;5011727;28;95252;-65
2022/11/29 06:35:45;;;;;;;374.92;37.45;;;;;;;;;;5011464;28;93772;-65
2022/11/29 06:38:19;;;;;;;99.70;25.30;;;;;;;;;;5006184;28;95034;-65
2022/11/29 06:40:45;;;;;;;150.68;25.48;;;;;;;;;;5024996;27;95634;-65
2022/11/29 06:43:12;;;;;;;154.57;26.23;;;;;;;;;;5016721;28;94557;-65
2022/11/29 06:45:40;;;;;;;196.98;27.67;;;;;;;;;;5013600;28;93181;-66
2022/11/29 06:48:08;;;;;;;189.18;27.73;;;;;;;;;;5013103;28;93245;-65
2022/11/29 06:50:47;;;;;;;144.25;28.10;;;;;;;;;;5018359;28;96441;-65
2022/11/29 06:53:32;;;;;;;162.63;28.17;;;;;;;;;;5020285;27;92396;-65
2022/11/29 06:56:06;;;;;;;119.80;26.73;;;;;;;;;;5017588;28;93009;-65
2022/11/29 06:58:36;;;;;;;114.55;28.52;;;;;;;;;;5011928;27;92503;-65
2022/11/29 07:01:05;;;;;;;116.57;26.23;;;;;;;;;;5011478;28;94828;-65
2022/11/29 07:03:44;;;;;;;101.90;26.73;;;;;;;;;;5009737;28;96468;-65
2022/11/29 07:06:24;;;;;;;88.57;23.88;;;;;;;;;;5020378;28;92834;-65
2022/11/29 07:08:52;;;;;;;91.45;24.10;;;;;;;;;;5016469;27;93605;-65
2022/11/29 07:11:18;;;;;;;102.35;24.00;;;;;;;;;;5015860;27;93270;-65
2022/11/29 07:13:45;;;;;;;115.88;24.08;;;;;;;;;;5015982;28;92526;-65
2022/11/29 07:16:21;;;;;;;140.25;26.27;;;;;;;;;;5012101;28;93834;-65
2022/11/29 07:19:12;;;;;;;90.97;24.42;;;;;;;;;;5009133;28;92498;-65
2022/11/29 07:21:46;;;;;;;81.53;22.58;;;;;;;;;;5012037;28;93542;-65
2022/11/29 07:24:18;;;;;;;92.47;24.35;;;;;;;;;;5017766;27;93488;-64
2022/11/29 07:27:01;;;;;;;78.68;22.98;;;;;;;;;;5016135;27;92560;-65
2022/11/29 07:29:34;;;;;;;68.90;21.75;;;;;;;;;;5020074;27;95066;-65
2022/11/29 07:32:12;;;;;;;86.05;21.40;;;;;;;;;;5013972;28;93765;-65
2022/11/29 07:34:45;;;;;;;95.30;25.33;;;;;;;;;;5010388;28;92600;-65
2022/11/29 07:37:29;;;;;;;71.95;22.20;;;;;;;;;;5016345;28;94323;-65
2022/11/29 07:40:03;;;;;;;81.60;21.25;;;;;;;;;;5027444;27;93796;-67
2022/11/29 07:42:44;;;;;;;79.20;21.73;;;;;;;;;;4998987;28;93554;-66
2022/11/29 07:45:10;;;;;;;62.95;20.08;;;;;;;;;;5013463;28;94536;-66
2022/11/29 07:47:37;;;;;;;65.80;20.67;;;;;;;;;;5020041;28;91843;-66
2022/11/29 07:50:03;;;;;;;75.03;20.88;;;;;;;;;;5019642;28;92517;-66
2022/11/29 07:52:30;;;;;;;56.20;18.27;;;;;;;;;;5032569;28;94786;-65
2022/11/29 07:54:56;;;;;;;67.95;18.67;;;;;;;;;;5018211;27;94911;-66
2022/11/29 07:57:22;;;;;;;71.47;20.17;;;;;;;;;;5014873;28;95615;-65
2022/11/29 07:59:48;;;;;;;84.50;21.52;;;;;;;;;;5016219;28;93442;-66
2022/11/29 08:02:24;;;;;;;104.45;21.38;;;;;;;;;;5023702;28;98083;-66
2022/11/29 08:04:50;;;;;;;62.35;18.70;;;;;;;;;;5013153;28;93430;-66
2022/11/29 08:07:17;;;;;;;58.55;16.92;;;;;;;;;;4999519;28;92978;-66
2022/11/29 08:09:43;;;;;;;88.05;17.35;;;;;;;;;;5017093;28;93243;-65
2022/11/29 08:12:10;;;;;;;86.60;17.85;;;;;;;;;;5015528;28;92620;-66
2022/11/29 08:14:36;;;;;;;53.30;17.65;;;;;;;;;;5014338;28;92448;-69
2022/11/29 08:17:02;;;;;;;67.93;19.02;;;;;;;;;;5015242;28;93176;-69
2022/11/29 08:19:29;;;;;;;60.85;16.17;;;;;;;;;;5013181;28;95814;-70
2022/11/29 08:21:55;;;;;;;50.78;15.93;;;;;;;;;;5019432;28;92493;-69
2022/11/29 08:24:21;;;;;;;52.25;15.80;;;;;;;;;;5011624;28;93491;-75
2022/11/29 08:26:48;;;;;;;47.15;13.93;;;;;;;;;;5019375;28;93134;-70
2022/11/29 08:29:14;;;;;;;50.60;14.20;;;;;;;;;;5024069;27;94260;-69
2022/11/29 08:31:40;;;;;;;44.45;13.73;;;;;;;;;;5014210;28;93473;-69
2022/11/29 08:34:08;;;;;;;49.20;13.95;;;;;;;;;;5014927;28;93216;-68
2022/11/29 08:36:34;;;;;;;48.80;13.88;;;;;;;;;;5027173;27;93367;-69
2022/11/29 08:39:01;;;;;;;50.00;13.93;;;;;;;;;;5017446;27;93903;-68
2022/11/29 08:41:34;;;;;;;57.33;14.00;;;;;;;;;;5015670;28;92394;-69
2022/11/29 08:44:01;;;;;;;75.15;14.40;;;;;;;;;;5014844;28;94903;-68
2022/11/29 08:47:34;;;;;;;54.92;13.82;;;;;;;;;;5015606;28;92501;-67
2022/11/29 08:49:13;;;;;;;53.75;13.40;;;;;;;;;;5014116;28;93443;-68
2022/11/29 08:51:39;;;;;;;50.58;12.88;;;;;;;;;;5013160;28;92856;-67
2022/11/29 08:54:06;;;;;;;46.00;12.75;;;;;;;;;;5022326;28;92712;-69
2022/11/29 08:56:34;;;;;;;37.50;11.23;;;;;;;;;;5017069;28;93248;-68
2022/11/29 08:59:20;;;;;;;40.08;11.07;;;;;;;;;;5013353;28;94437;-69
2022/11/29 09:01:47;;;;;;;39.28;10.65;;;;;;;;;;5014532;28;92105;-69
2022/11/29 09:04:13;;;;;;;42.75;11.73;;;;;;;;;;5012651;28;92688;-69
2022/11/29 09:06:41;;;;;;;45.88;13.23;;;;;;;;;;5015170;28;93420;-68
2022/11/29 09:09:08;;;;;;;53.00;13.35;;;;;;;;;;5009708;28;95119;-69
2022/11/29 09:11:35;;;;;;;41.00;12.00;;;;;;;;;;5002881;28;93854;-69
2022/11/29 09:14:03;;;;;;;38.95;12.23;;;;;;;;;;5013618;28;93832;-69
2022/11/29 09:16:31;;;;;;;39.92;11.55;;;;;;;;;;5013480;28;93642;-70
2022/11/29 09:18:57;;;;;;;33.97;11.18;;;;;;;;;;5008698;28;93824;-69
2022/11/29 09:21:25;;;;;;;40.40;11.55;;;;;;;;;;5013802;28;94166;-68
2022/11/29 09:23:57;;;;;;;41.70;11.88;;;;;;;;;;5014416;28;93192;-69
2022/11/29 09:26:24;;;;;;;52.35;11.65;;;;;;;;;;5016803;28;94017;-68
2022/11/29 09:28:51;;;;;;;55.90;11.60;;;;;;;;;;5018028;28;92759;-67
2022/11/29 09:31:18;;;;;;;51.25;12.13;;;;;;;;;;5012838;28;93790;-67
2022/11/29 09:33:45;;;;;;;52.75;12.68;;;;;;;;;;5006579;28;95038;-68
2022/11/29 09:36:11;;;;;;;48.45;12.75;;;;;;;;;;5013344;28;95531;-67
2022/11/29 09:38:38;;;;;;;43.58;13.15;;;;;;;;;;5018101;28;93454;-68
2022/11/29 09:41:07;;;;;;;46.45;13.55;;;;;;;;;;5014046;27;93880;-68
2022/11/29 09:43:42;;;;;;;46.05;12.90;;;;;;;;;;5013898;28;93215;-68
2022/11/29 09:46:16;;;;;;;41.25;13.25;;;;;;;;;;5014486;28;93582;-67
2022/11/29 09:48:46;;;;;;;31.50;11.15;;;;;;;;;;5016545;28;92505;-68
2022/11/29 09:51:26;;;;;;;36.55;12.18;;;;;;;;;;5014651;28;92745;-67
2022/11/29 09:54:03;;;;;;;37.95;13.25;;;;;;;;;;5018133;28;92548;-68
2022/11/29 09:56:33;;;;;;;31.15;10.02;;;;;;;;;;5032198;27;93615;-65
2022/11/29 09:59:04;;;;;;;31.50;10.80;;;;;;;;;;5016127;28;96551;-66
2022/11/29 10:01:33;;;;;;;37.10;10.95;;;;;;;;;;5029570;28;92456;-67
2022/11/29 10:04:01;;;;;;;27.25;10.73;;;;;;;;;;5015347;27;93496;-67
2022/11/29 10:06:31;;;;;;;31.38;10.30;;;;;;;;;;5026085;28;94483;-67
2022/11/29 10:09:03;;;;;;;26.63;10.10;;;;;;;;;;5006390;27;92591;-66
2022/11/29 10:11:37;;;;;;;24.02;9.52;;;;;;;;;;5032255;28;95918;-67
2022/11/29 10:14:11;;;;;;;29.15;9.82;;;;;;;;;;5015094;28;93271;-67
2022/11/29 10:16:40;;;;;;;29.92;10.75;;;;;;;;;;5004431;28;93713;-67
2022/11/29 10:19:14;;;;;;;32.60;10.98;;;;;;;;;;5018105;28;93378;-66
2022/11/29 10:21:42;;;;;;;33.30;11.43;;;;;;;;;;5024892;27;92378;-67
2022/11/29 10:24:12;;;;;;;43.28;12.57;;;;;;;;;;5011667;28;94897;-67
2022/11/29 10:26:38;;;;;;;47.53;13.40;;;;;;;;;;5006764;28;93747;-67
2022/11/29 10:29:04;;;;;;;45.22;13.77;;;;;;;;;;5013233;28;92955;-66
2022/11/29 10:31:35;;;;;;;40.10;13.88;;;;;;;;;;5026634;27;93638;-66
2022/11/29 10:34:10;;;;;;;41.85;12.32;;;;;;;;;;5034009;27;93296;-67
2022/11/29 10:36:48;;;;;;;38.30;13.20;;;;;;;;;;5018009;27;93237;-68
2022/11/29 10:39:22;;;;;;;33.63;11.90;;;;;;;;;;5009495;28;94640;-67
2022/11/29 10:41:51;;;;;;;35.92;13.10;;;;;;;;;;5011865;28;93515;-67
2022/11/29 10:44:19;;;;;;;41.72;13.25;;;;;;;;;;5004257;28;92367;-67
2022/11/29 10:46:45;;;;;;;37.83;13.40;;;;;;;;;;5012259;28;93442;-68
2022/11/29 10:49:16;;;;;;;43.70;14.48;;;;;;;;;;5010653;28;94942;-69
2022/11/29 10:51:43;;;;;;;43.80;14.52;;;;;;;;;;5005273;28;94793;-69
2022/11/29 10:54:16;;;;;;;32.20;12.85;;;;;;;;;;5010589;28;93929;-68
2022/11/29 10:56:43;;;;;;;43.00;14.02;;;;;;;;;;5026558;27;93923;-67
2022/11/29 10:59:18;;;;;;;41.65;13.45;;;;;;;;;;5013664;27;93861;-67
2022/11/29 11:01:44;;;;;;;39.28;13.43;;;;;;;;;;5016674;27;92527;-68
2022/11/29 11:04:16;;;;;;;37.47;14.05;;;;;;;;;;5010658;28;93560;-66
2022/11/29 11:06:47;;;;;;;40.75;13.38;;;;;;;;;;5015793;28;92942;-66
2022/11/29 11:09:33;;;;;;;36.70;13.27;;;;;;;;;;5003608;28;93147;-68
2022/11/29 11:12:01;;;;;;;43.20;12.70;;;;;;;;;;5015345;28;93741;-69
2022/11/29 11:14:33;;;;;;;32.85;11.43;;;;;;;;;;4999122;28;95829;-69
2022/11/29 11:17:19;;;;;;;41.22;12.35;;;;;;;;;;5012886;28;93146;-69
2022/11/29 11:19:53;;;;;;;38.10;13.20;;;;;;;;;;5014358;28;94975;-67
2022/11/29 11:22:20;;;;;;;33.15;11.65;;;;;;;;;;5004110;28;92842;-68
2022/11/29 11:24:54;;;;;;;36.75;11.27;;;;;;;;;;5020208;28;92600;-68
2022/11/29 11:27:31;;;;;;;38.90;12.10;;;;;;;;;;5023608;27;94833;-68
2022/11/29 11:29:58;;;;;;;33.50;11.77;;;;;;;;;;5013537;27;93012;-68
2022/11/29 11:32:24;;;;;;;37.92;11.90;;;;;;;;;;5008391;28;94410;-67
2022/11/29 11:34:52;;;;;;;25.95;10.52;;;;;;;;;;5014373;28;95374;-68
2022/11/29 11:37:26;;;;;;;28.02;10.90;;;;;;;;;;5034375;27;93012;-69
2022/11/29 11:39:55;;;;;;;37.40;10.77;;;;;;;;;;5016314;27;96763;-68
2022/11/29 11:42:36;;;;;;;32.17;11.27;;;;;;;;;;5010370;28;92683;-67
2022/11/29 11:45:09;;;;;;;27.33;10.38;;;;;;;;;;5012954;28;93589;-69
2022/11/29 11:47:36;;;;;;;33.88;11.80;;;;;;;;;;5011984;28;93474;-70
2022/11/29 11:50:08;;;;;;;36.70;12.65;;;;;;;;;;5011270;27;93276;-69
2022/11/29 11:52:34;;;;;;;36.03;12.30;;;;;;;;;;5025708;27;93621;-68
2022/11/29 11:55:23;;;;;;;42.28;14.77;;;;;;;;;;5011978;28;93461;-69
2022/11/29 11:57:58;;;;;;;35.20;13.15;;;;;;;;;;5000629;28;92802;-69
2022/11/29 12:00:39;;;;;;;38.40;14.40;;;;;;;;;;5023344;28;93546;-69
2022/11/29 12:03:44;;;;;;;43.40;13.82;;;;;;;;;;5015297;27;95779;-68
2022/11/29 12:06:17;;;;;;;46.13;14.10;;;;;;;;;;4997757;28;95088;-68
2022/11/29 12:08:44;;;;;;;38.45;12.35;;;;;;;;;;5000968;28;94451;-67
2022/11/29 12:11:13;;;;;;;32.78;11.90;;;;;;;;;;5009679;28;92647;-68
2022/11/29 12:13:42;;;;;;;36.80;13.48;;;;;;;;;;5023090;28;93182;-67
2022/11/29 12:16:17;;;;;;;45.85;14.75;;;;;;;;;;5019794;28;93458;-69
2022/11/29 12:18:48;;;;;;;38.33;14.07;;;;;;;;;;5029580;27;92516;-68
2022/11/29 12:21:16;;;;;;;41.30;14.40;;;;;;;;;;5017183;27;93186;-69
2022/11/29 12:24:01;;;;;;;40.08;15.63;;;;;;;;;;5001010;28;93100;-68
2022/11/29 12:26:28;;;;;;;35.60;13.88;;;;;;;;;;5017230;28;92416;-69
2022/11/29 12:29:16;;;;;;;49.72;14.55;;;;;;;;;;5017836;28;93420;-67
2022/11/29 12:31:43;;;;;;;41.50;14.70;;;;;;;;;;5011673;28;94895;-67
2022/11/29 12:34:26;;;;;;;35.53;14.80;;;;;;;;;;5020252;28;95751;-69
2022/11/29 12:36:56;;;;;;;32.63;13.80;;;;;;;;;;5019471;28;93717;-69
2022/11/29 12:39:34;;;;;;;34.90;14.52;;;;;;;;;;5026833;28;92531;-68
2022/11/29 12:42:04;;;;;;;50.40;15.15;;;;;;;;;;5014791;28;93325;-69
2022/11/29 12:44:36;;;;;;;44.33;14.27;;;;;;;;;;5014100;28;93738;-68
2022/11/29 12:47:19;;;;;;;38.33;14.23;;;;;;;;;;5014206;28;92488;-67
2022/11/29 12:50:03;;;;;;;48.20;15.68;;;;;;;;;;5016743;28;93233;-68
2022/11/29 12:52:32;;;;;;;49.88;15.85;;;;;;;;;;5034998;27;92428;-67
2022/11/29 12:55:05;;;;;;;37.60;12.00;;;;;;;;;;5021649;27;92634;-67
2022/11/29 12:57:36;;;;;;;39.28;13.10;;;;;;;;;;5012915;27;95899;-67
2022/11/29 13:00:03;;;;;;;41.30;12.20;;;;;;;;;;5033713;28;92590;-68
2022/11/29 13:02:47;;;;;;;36.28;12.27;;;;;;;;;;5027208;27;93641;-68
2022/11/29 13:05:23;;;;;;;35.92;16.58;;;;;;;;;;5009253;28;94541;-67
2022/11/29 13:08:07;;;;;;;41.58;16.75;;;;;;;;;;5011370;28;92468;-67
2022/11/29 13:10:33;;;;;;;41.15;16.20;;;;;;;;;;5014934;27;93154;-67
2022/11/29 13:13:07;;;;;;;52.08;18.25;;;;;;;;;;5016326;28;93461;-67
2022/11/29 13:15:37;;;;;;;43.88;16.30;;;;;;;;;;5021765;28;93499;-68
2022/11/29 13:18:21;;;;;;;53.05;19.27;;;;;;;;;;5016857;28;93502;-68
2022/11/29 13:20:50;;;;;;;41.80;17.60;;;;;;;;;;5026063;27;92474;-68
2022/11/29 13:23:23;;;;;;;42.85;16.52;;;;;;;;;;5011556;28;94835;-67
2022/11/29 13:26:10;;;;;;;47.90;17.42;;;;;;;;;;5014199;28;93250;-67
2022/11/29 13:28:38;;;;;;;43.05;17.15;;;;;;;;;;5011021;28;94071;-68
2022/11/29 13:31:06;;;;;;;61.97;19.73;;;;;;;;;;5020911;28;93227;-68
2022/11/29 13:33:35;;;;;;;60.50;20.02;;;;;;;;;;5020514;28;92667;-68
2022/11/29 13:36:08;;;;;;;50.28;19.55;;;;;;;;;;5030766;28;92411;-68
2022/11/29 13:38:43;;;;;;;48.42;20.50;;;;;;;;;;5033217;27;93409;-68
2022/11/29 13:41:30;;;;;;;39.90;18.77;;;;;;;;;;5023147;27;93264;-68
2022/11/29 13:44:03;;;;;;;40.60;17.67;;;;;;;;;;5032216;28;92551;-68
2022/11/29 13:46:35;;;;;;;58.20;20.65;;;;;;;;;;5017109;27;93734;-68
2022/11/29 13:49:01;;;;;;;45.65;17.52;;;;;;;;;;5008752;28;96125;-68
2022/11/29 13:51:36;;;;;;;44.13;17.60;;;;;;;;;;5011588;28;94286;-69
2022/11/29 13:54:04;;;;;;;51.65;19.45;;;;;;;;;;5013982;28;93769;-67
2022/11/29 13:56:46;;;;;;;50.15;16.88;;;;;;;;;;5016705;28;92471;-67
2022/11/29 13:59:15;;;;;;;43.72;18.08;;;;;;;;;;5023801;28;96500;-69
2022/11/29 14:01:52;;;;;;;53.70;17.17;;;;;;;;;;5021373;27;92717;-68
2022/11/29 14:04:22;;;;;;;42.78;16.85;;;;;;;;;;5021689;28;92865;-68
2022/11/29 14:06:49;;;;;;;54.13;17.88;;;;;;;;;;5017324;27;93831;-68
2022/11/29 14:09:21;;;;;;;49.35;17.60;;;;;;;;;;5014468;28;92639;-69
2022/11/29 14:11:58;;;;;;;43.03;18.42;;;;;;;;;;5013609;28;93296;-68
2022/11/29 14:14:27;;;;;;;39.15;16.73;;;;;;;;;;5020515;28;96137;-68
2022/11/29 14:16:58;;;;;;;42.22;15.95;;;;;;;;;;5016649;28;92443;-68
2022/11/29 14:19:26;;;;;;;34.60;12.48;;;;;;;;;;5026325;27;93422;-68
2022/11/29 14:22:01;;;;;;;30.15;13.57;;;;;;;;;;5033166;27;92485;-68
2022/11/29 14:24:30;;;;;;;41.65;15.50;;;;;;;;;;5025646;27;93184;-68
2022/11/29 14:27:06;;;;;;;39.47;16.80;;;;;;;;;;5012419;28;93631;-69
2022/11/29 14:29:52;;;;;;;53.47;19.20;;;;;;;;;;5025746;28;92491;-68
2022/11/29 14:32:23;;;;;;;53.85;19.10;;;;;;;;;;5033813;27;93356;-68
2022/11/29 14:35:03;;;;;;;49.15;18.30;;;;;;;;;;5023888;27;93979;-68
2022/11/29 14:37:39;;;;;;;40.50;18.48;;;;;;;;;;5032072;27;92518;-69
2022/11/29 14:40:22;;;;;;;40.47;19.15;;;;;;;;;;5005566;28;96303;-69
2022/11/29 14:42:49;;;;;;;48.78;19.08;;;;;;;;;;5033181;28;93922;-66
2022/11/29 14:45:32;;;;;;;47.58;19.33;;;;;;;;;;5027886;27;93093;-67